Time;durP1;ratioP1;P1;durP2;ratioP2;P2;SDS_P1;SDS_P2;PMS_P1;PMS_P2;Temp;Humidity;BMP_temperature;BMP_pressure;BME280_temperature;BME280_humidity;BME280_pressure;Samples;Min_cycle;Max_cycle;Signal;HPM_P1;HPM_P2
2021/04/23 00:01:49;;;;;;;17.63;6.00;;;;;;;8.66;85.14;101734.31;5012150;28;20029;-72
2021/04/23 00:04:15;;;;;;;23.65;5.57;;;;;;;8.69;84.55;101730.22;5014056;28;20034;-72
2021/04/23 00:06:48;;;;;;;16.23;5.38;;;;;;;8.68;84.24;101729.44;5013460;28;20403;-73
2021/04/23 00:09:19;;;;;;;17.73;5.50;;;;;;;8.61;84.12;101731.00;5009024;28;20145;-73
2021/04/23 00:11:51;;;;;;;16.98;4.50;;;;;;;8.52;84.60;101738.22;5011837;28;20041;-72
2021/04/23 00:14:20;;;;;;;15.90;5.72;;;;;;;8.55;84.23;101732.25;5014005;28;20379;-72
2021/04/23 00:16:47;;;;;;;13.15;4.93;;;;;;;8.51;84.22;101725.94;5000162;28;20025;-73
2021/04/23 00:19:17;;;;;;;16.17;5.20;;;;;;;8.56;83.94;101731.94;4994282;28;20449;-72
2021/04/23 00:21:43;;;;;;;12.57;5.25;;;;;;;8.51;83.75;101732.09;5007567;28;20037;-74
2021/04/23 00:24:09;;;;;;;16.50;5.35;;;;;;;8.47;84.41;101724.97;5008117;28;20037;-73
2021/04/23 00:26:35;;;;;;;16.00;5.03;;;;;;;8.41;84.38;101727.03;5009219;28;20041;-73
2021/04/23 00:29:01;;;;;;;16.98;4.95;;;;;;;8.34;85.06;101724.03;5012984;28;20042;-73
2021/04/23 00:31:26;;;;;;;18.17;5.53;;;;;;;8.34;85.22;101710.59;5009624;28;20080;-72
2021/04/23 00:33:52;;;;;;;13.95;4.80;;;;;;;8.31;85.83;101719.25;4969992;28;20026;-73
2021/04/23 00:36:18;;;;;;;15.70;4.78;;;;;;;8.39;84.97;101721.19;5011076;28;20033;-72
2021/04/23 00:38:44;;;;;;;13.82;4.57;;;;;;;8.29;85.33;101726.84;5013220;28;20038;-72
2021/04/23 00:41:16;;;;;;;18.05;5.07;;;;;;;8.29;85.65;101718.78;4992490;28;20124;-73
2021/04/23 00:43:44;;;;;;;20.52;5.18;;;;;;;8.22;85.66;101715.75;5002565;28;20026;-73
2021/04/23 00:46:12;;;;;;;16.02;5.22;;;;;;;8.27;85.98;101720.19;5004140;28;20146;-74
2021/04/23 00:48:44;;;;;;;21.10;5.47;;;;;;;8.18;86.66;101709.44;5005614;28;20030;-72
2021/04/23 00:51:41;;;;;;;15.65;5.38;;;;;;;8.21;87.09;101717.63;5008102;28;20038;-73
2021/04/23 00:54:08;;;;;;;19.52;5.47;;;;;;;8.16;87.29;101711.63;4985630;28;20034;-73
2021/04/23 00:56:41;;;;;;;16.65;5.05;;;;;;;8.19;86.96;101702.94;5009875;28;20514;-72
2021/04/23 00:59:09;;;;;;;17.08;5.43;;;;;;;8.27;86.42;101717.50;5012639;28;20045;-72
2021/04/23 01:01:52;;;;;;;20.13;5.60;;;;;;;8.21;87.07;101714.16;4991602;28;20030;-72
2021/04/23 01:04:20;;;;;;;14.88;5.18;;;;;;;8.18;87.35;101720.16;5003362;28;20034;-72
2021/04/23 01:06:45;;;;;;;18.15;5.40;;;;;;;8.12;87.51;101714.16;5012458;28;20037;-72
2021/04/23 01:09:15;;;;;;;18.20;5.60;;;;;;;8.18;87.41;101717.47;4994533;28;20025;-73
2021/04/23 01:11:42;;;;;;;15.10;4.93;;;;;;;8.14;87.19;101706.59;5013173;28;20038;-72
2021/04/23 01:14:09;;;;;;;24.10;4.90;;;;;;;8.08;87.89;101720.44;5010783;28;20022;-72
2021/04/23 01:16:35;;;;;;;19.90;5.18;;;;;;;8.16;86.93;101714.31;5011874;28;20046;-72
2021/04/23 01:19:01;;;;;;;13.30;5.45;;;;;;;8.06;87.11;101725.31;4994663;28;20613;-73
2021/04/23 01:21:30;;;;;;;18.48;5.38;;;;;;;8.14;86.87;101717.31;5013052;28;20030;-73
2021/04/23 01:23:58;;;;;;;15.38;5.20;;;;;;;8.14;87.35;101719.19;5004119;28;20060;-71
2021/04/23 01:26:27;;;;;;;17.27;5.20;;;;;;;8.10;87.20;101720.91;4994660;28;20030;-71
2021/04/23 01:28:54;;;;;;;22.52;5.30;;;;;;;7.94;87.40;101711.72;5010901;28;20433;-72
2021/04/23 01:31:23;;;;;;;13.70;4.72;;;;;;;7.99;87.39;101715.03;5007116;28;20034;-71
2021/04/23 01:33:53;;;;;;;21.77;4.82;;;;;;;8.04;87.23;101711.44;5004586;28;20088;-73
2021/04/23 01:36:19;;;;;;;21.60;5.25;;;;;;;8.00;87.73;101716.63;5011722;28;20034;-72
2021/04/23 01:38:47;;;;;;;12.32;4.75;;;;;;;7.95;87.78;101718.66;5010485;28;20033;-73
2021/04/23 01:41:13;;;;;;;14.95;4.72;;;;;;;7.97;87.71;101717.25;4999310;28;20039;-73
2021/04/23 01:43:38;;;;;;;20.13;5.22;;;;;;;7.93;87.25;101710.94;5008596;28;20034;-73
2021/04/23 01:46:07;;;;;;;18.98;4.85;;;;;;;8.05;86.90;101723.75;5003470;28;20066;-73
2021/04/23 01:48:34;;;;;;;13.98;4.55;;;;;;;7.95;86.86;101716.78;5003907;28;20038;-72
2021/04/23 01:51:05;;;;;;;13.30;4.55;;;;;;;7.98;86.82;101721.50;5012229;28;20037;-72
2021/04/23 01:53:31;;;;;;;14.85;5.53;;;;;;;7.94;87.66;101719.75;4988930;28;20058;-72
2021/04/23 01:55:57;;;;;;;14.90;4.63;;;;;;;7.92;87.42;101730.00;4989075;28;20091;-72
2021/04/23 01:58:22;;;;;;;22.52;4.72;;;;;;;7.92;86.87;101728.13;4991503;28;20045;-72
2021/04/23 02:00:50;;;;;;;15.75;4.55;;;;;;;7.92;87.28;101730.78;5010149;28;20029;-71
2021/04/23 02:03:17;;;;;;;19.05;4.80;;;;;;;7.91;86.95;101734.59;5007720;28;20690;-72
2021/04/23 02:05:44;;;;;;;13.75;4.55;;;;;;;7.93;87.05;101728.91;5011627;28;20030;-72
2021/04/23 02:08:13;;;;;;;13.70;4.70;;;;;;;7.84;87.91;101734.22;5011200;28;20026;-72
2021/04/23 02:10:49;;;;;;;15.30;4.80;;;;;;;7.78;88.04;101745.41;5007131;28;20034;-73
2021/04/23 02:13:22;;;;;;;8.18;4.20;;;;;;;7.82;87.76;101739.09;4993181;28;20091;-73
2021/04/23 02:15:48;;;;;;;16.40;4.22;;;;;;;7.81;87.56;101737.53;5011165;28;20059;-72
2021/04/23 02:18:14;;;;;;;19.77;5.00;;;;;;;7.78;88.10;101740.81;5008132;28;20026;-73
2021/04/23 02:20:39;;;;;;;13.45;5.00;;;;;;;7.82;87.55;101741.78;5003924;28;20458;-72
2021/04/23 02:23:07;;;;;;;21.15;4.93;;;;;;;7.84;87.51;101738.81;5010973;28;20033;-72
2021/04/23 02:25:35;;;;;;;15.90;4.80;;;;;;;7.90;87.53;101737.56;5005917;28;20025;-72
2021/04/23 02:28:00;;;;;;;11.57;4.57;;;;;;;7.81;88.01;101734.06;5004944;28;20483;-73
2021/04/23 02:30:30;;;;;;;15.30;4.28;;;;;;;7.79;88.13;101739.75;5011810;28;20036;-72
2021/04/23 02:32:57;;;;;;;12.07;4.63;;;;;;;7.78;87.92;101748.09;5006682;28;20069;-73
2021/04/23 02:35:23;;;;;;;14.35;4.90;;;;;;;7.81;87.29;101755.50;5005994;28;20038;-72
2021/04/23 02:37:50;;;;;;;15.40;4.88;;;;;;;7.80;88.06;101762.00;5003929;28;20079;-72
2021/04/23 02:40:19;;;;;;;14.15;4.20;;;;;;;7.78;87.50;101750.78;5000443;28;20048;-72
2021/04/23 02:42:46;;;;;;;16.92;4.10;;;;;;;7.71;87.65;101750.41;5009845;28;20071;-73
2021/04/23 02:45:15;;;;;;;15.23;4.40;;;;;;;7.75;88.07;101762.09;5010980;28;20398;-73
2021/04/23 02:47:41;;;;;;;19.60;4.82;;;;;;;7.74;87.94;101755.94;5000596;28;20038;-72
2021/04/23 02:50:08;;;;;;;16.33;4.40;;;;;;;7.68;87.75;101767.13;5000831;28;20117;-73
2021/04/23 02:52:34;;;;;;;14.52;4.22;;;;;;;7.72;87.74;101762.72;5005768;28;20032;-72
2021/04/23 02:55:00;;;;;;;15.48;4.28;;;;;;;7.76;87.06;101761.03;4994144;28;20026;-72
2021/04/23 02:57:26;;;;;;;17.45;4.40;;;;;;;7.76;86.97;101766.38;4987449;28;20165;-73
2021/04/23 02:59:52;;;;;;;14.35;4.25;;;;;;;7.80;86.22;101770.03;5008681;28;20407;-72
2021/04/23 03:02:17;;;;;;;12.02;3.75;;;;;;;7.68;86.75;101761.75;5010352;28;20034;-72
2021/04/23 03:04:44;;;;;;;19.58;3.35;;;;;;;7.74;87.06;101760.53;5010022;28;20505;-73
2021/04/23 03:07:09;;;;;;;12.25;4.10;;;;;;;7.87;86.24;101759.66;5005574;28;20034;-73
2021/04/23 03:09:35;;;;;;;15.15;3.95;;;;;;;7.87;86.14;101763.13;4983189;28;20116;-73
2021/04/23 03:12:01;;;;;;;10.10;3.30;;;;;;;7.84;85.96;101757.59;5010117;28;20108;-73
2021/04/23 03:14:27;;;;;;;13.25;3.65;;;;;;;7.83;85.24;101764.03;5010994;28;20042;-73
2021/04/23 03:16:52;;;;;;;10.65;3.85;;;;;;;7.89;83.91;101762.81;5010539;28;20048;-72
2021/04/23 03:19:20;;;;;;;10.02;3.47;;;;;;;7.83;83.90;101766.72;5006541;28;20061;-73
2021/04/23 03:21:48;;;;;;;14.88;3.55;;;;;;;7.90;82.59;101769.75;5004411;28;20120;-73
2021/04/23 03:24:14;;;;;;;13.55;3.60;;;;;;;7.82;82.39;101773.19;5010663;28;20034;-73
2021/04/23 03:26:41;;;;;;;16.80;3.38;;;;;;;7.95;81.64;101772.31;5004429;28;20545;-72
2021/04/23 03:29:08;;;;;;;7.97;3.10;;;;;;;7.99;81.36;101768.66;5009623;28;20026;-72
2021/04/23 03:31:35;;;;;;;14.45;3.75;;;;;;;8.04;81.15;101767.75;5008366;28;20112;-73
2021/04/23 03:34:01;;;;;;;11.40;3.22;;;;;;;7.99;80.37;101757.94;5000900;28;20030;-73
2021/04/23 03:36:27;;;;;;;15.70;2.95;;;;;;;8.03;80.09;101763.50;4999641;28;20087;-72
2021/04/23 03:38:53;;;;;;;15.10;3.67;;;;;;;8.06;79.51;101762.88;4973858;28;20038;-73
2021/04/23 03:41:25;;;;;;;8.38;3.03;;;;;;;8.12;79.43;101764.31;4996267;28;20030;-72
2021/04/23 03:43:52;;;;;;;14.27;3.03;;;;;;;7.97;79.31;101765.53;4987222;28;20421;-73
2021/04/23 03:46:17;;;;;;;8.45;2.60;;;;;;;8.03;79.27;101774.25;4977286;28;20034;-72
2021/04/23 03:48:43;;;;;;;5.70;2.28;;;;;;;8.08;79.00;101777.56;4988948;28;20034;-74
2021/04/23 03:51:11;;;;;;;17.33;2.90;;;;;;;7.99;78.89;101773.28;5001277;28;20036;-73
2021/04/23 03:53:38;;;;;;;12.13;2.70;;;;;;;7.97;78.38;101781.63;5007428;28;20037;-73
2021/04/23 03:56:05;;;;;;;12.80;3.05;;;;;;;7.93;78.01;101787.91;5010097;28;20394;-72
2021/04/23 03:58:32;;;;;;;12.18;2.58;;;;;;;7.96;77.59;101787.28;5009446;28;20495;-73
2021/04/23 04:01:01;;;;;;;10.57;2.75;;;;;;;7.98;77.47;101787.75;5010097;28;20057;-73
2021/04/23 04:03:28;;;;;;;12.77;2.30;;;;;;;8.08;75.49;101792.88;5003879;28;20483;-72
2021/04/23 04:05:55;;;;;;;12.77;2.10;;;;;;;7.96;75.98;101788.06;5009297;28;20121;-73
2021/04/23 04:08:21;;;;;;;10.77;2.70;;;;;;;7.98;75.38;101793.13;5001466;28;20449;-74
2021/04/23 04:10:47;;;;;;;7.10;2.40;;;;;;;8.02;75.28;101788.72;5004971;28;20095;-73
2021/04/23 04:13:14;;;;;;;9.02;2.15;;;;;;;7.97;75.64;101787.00;4991478;28;20486;-73
2021/04/23 04:15:40;;;;;;;12.88;2.67;;;;;;;7.89;75.27;101787.75;5010152;28;20041;-74
2021/04/23 04:18:07;;;;;;;8.90;2.47;;;;;;;7.95;75.62;101789.19;5006155;28;20037;-72
2021/04/23 04:20:35;;;;;;;14.77;2.63;;;;;;;7.98;75.62;101798.50;4999477;28;20037;-72
2021/04/23 04:23:00;;;;;;;13.55;2.78;;;;;;;7.93;75.08;101799.44;4998061;28;20026;-72
2021/04/23 04:25:32;;;;;;;9.48;2.63;;;;;;;7.92;75.69;101789.78;5000167;28;20499;-72
2021/04/23 04:27:58;;;;;;;13.27;2.30;;;;;;;7.97;74.68;101802.28;5008965;28;20479;-74
2021/04/23 04:30:25;;;;;;;10.80;2.65;;;;;;;8.02;75.11;101802.94;5009339;28;20348;-74
2021/04/23 04:32:53;;;;;;;13.98;3.05;;;;;;;8.08;75.16;101806.28;4996694;28;20076;-72
2021/04/23 04:35:18;;;;;;;9.23;2.80;;;;;;;8.10;75.29;101804.88;5006005;28;20049;-73
2021/04/23 04:37:44;;;;;;;11.75;2.70;;;;;;;8.13;75.12;101800.75;5007711;28;20022;-74
2021/04/23 04:40:11;;;;;;;16.25;2.88;;;;;;;8.14;75.48;101797.78;4998986;28;20430;-72
2021/04/23 04:42:37;;;;;;;11.45;2.50;;;;;;;8.00;75.96;101809.69;4986353;28;20148;-74
2021/04/23 04:45:09;;;;;;;8.40;2.53;;;;;;;8.08;76.15;101812.44;4997504;28;20042;-74
2021/04/23 04:47:35;;;;;;;18.23;2.50;;;;;;;8.19;75.27;101821.78;4995425;28;20116;-74
2021/04/23 04:50:05;;;;;;;9.45;2.40;;;;;;;8.20;75.28;101820.69;5006854;28;20508;-73
2021/04/23 04:52:30;;;;;;;12.50;2.42;;;;;;;8.18;75.26;101828.28;5007917;28;22144;-74
2021/04/23 04:54:56;;;;;;;11.15;2.38;;;;;;;8.15;75.38;101831.56;4989580;28;20115;-73
2021/04/23 04:57:22;;;;;;;8.18;3.22;;;;;;;8.19;75.50;101837.88;5006332;28;20060;-74
2021/04/23 04:59:47;;;;;;;6.85;2.50;;;;;;;8.17;75.18;101839.28;4995366;28;20382;-73
2021/04/23 05:02:15;;;;;;;14.73;2.42;;;;;;;8.23;75.63;101841.53;5003819;28;20673;-73
2021/04/23 05:04:41;;;;;;;8.25;2.40;;;;;;;8.23;75.71;101833.50;4994672;28;20410;-74
2021/04/23 05:07:07;;;;;;;11.35;2.45;;;;;;;8.26;75.59;101832.13;5012407;28;20047;-72
2021/04/23 05:09:33;;;;;;;14.15;2.97;;;;;;;8.29;75.69;101847.59;5000708;28;20034;-74
2021/04/23 05:11:58;;;;;;;15.68;2.95;;;;;;;8.35;76.06;101840.19;5006679;28;20112;-74
2021/04/23 05:14:24;;;;;;;12.68;2.67;;;;;;;8.35;75.81;101851.72;5012114;28;20113;-74
2021/04/23 05:16:52;;;;;;;10.40;2.45;;;;;;;8.36;76.05;101849.84;5013019;28;20026;-74
2021/04/23 05:19:18;;;;;;;11.85;2.42;;;;;;;8.33;75.51;101843.19;5005866;28;20052;-74
2021/04/23 05:21:44;;;;;;;11.93;2.60;;;;;;;8.41;75.96;101850.47;5010388;28;20030;-73
2021/04/23 05:24:10;;;;;;;15.43;2.65;;;;;;;8.40;76.26;101856.94;5006205;28;20033;-74
2021/04/23 05:26:35;;;;;;;12.40;2.63;;;;;;;8.59;75.57;101859.38;5002712;28;20491;-73
2021/04/23 05:29:02;;;;;;;12.30;2.30;;;;;;;8.57;75.65;101862.38;5010841;28;20041;-72
2021/04/23 05:31:27;;;;;;;12.98;2.05;;;;;;;8.58;75.07;101855.91;5009183;28;20751;-73
2021/04/23 05:33:53;;;;;;;11.50;2.28;;;;;;;8.77;74.78;101861.00;5002800;28;20040;-73
2021/04/23 05:36:18;;;;;;;16.10;2.60;;;;;;;8.72;75.28;101859.28;5010815;28;20076;-74
2021/04/23 05:38:44;;;;;;;14.98;2.42;;;;;;;8.85;74.51;101866.41;5010578;28;20570;-73
2021/04/23 05:41:09;;;;;;;13.32;2.78;;;;;;;9.15;73.28;101867.41;5010915;28;20053;-74
2021/04/23 05:43:35;;;;;;;12.13;2.50;;;;;;;9.13;73.14;101868.81;5003164;28;20084;-73
2021/04/23 05:46:00;;;;;;;11.45;2.53;;;;;;;9.46;72.65;101878.00;5003480;28;20045;-74
2021/04/23 05:48:26;;;;;;;14.30;2.53;;;;;;;9.69;71.65;101872.16;5003346;28;20048;-74
2021/04/23 05:50:51;;;;;;;10.57;2.08;;;;;;;9.90;70.77;101869.56;5009603;28;20539;-74
2021/04/23 05:53:17;;;;;;;9.80;1.95;;;;;;;9.99;70.02;101873.84;5012619;28;20386;-73
2021/04/23 05:55:43;;;;;;;16.60;2.55;;;;;;;10.17;69.07;101877.28;5008197;28;20033;-73
2021/04/23 05:58:10;;;;;;;11.95;2.85;;;;;;;10.21;69.08;101870.16;4993456;28;20046;-74
2021/04/23 06:00:39;;;;;;;12.90;2.30;;;;;;;10.39;68.45;101885.16;5012181;28;20057;-73
2021/04/23 06:03:06;;;;;;;15.75;2.28;;;;;;;10.41;67.89;101882.94;4993714;28;20042;-74
2021/04/23 06:05:33;;;;;;;10.75;2.30;;;;;;;10.55;68.10;101882.72;5011386;28;20054;-74
2021/04/23 06:08:01;;;;;;;19.80;2.10;;;;;;;10.75;67.57;101895.44;5010054;28;20422;-73
2021/04/23 06:10:28;;;;;;;13.00;2.53;;;;;;;10.79;67.72;101891.78;5011143;28;20034;-72
2021/04/23 06:12:54;;;;;;;14.57;3.33;;;;;;;10.94;67.10;101890.41;5004959;28;20033;-73
2021/04/23 06:15:21;;;;;;;13.70;2.45;;;;;;;11.06;65.98;101884.31;5010325;28;20511;-74
2021/04/23 06:17:47;;;;;;;18.52;2.85;;;;;;;11.15;66.14;101893.16;5004987;28;20056;-73
2021/04/23 06:20:18;;;;;;;17.92;2.10;;;;;;;11.15;67.64;101898.53;4990827;28;20407;-73
2021/04/23 06:22:44;;;;;;;15.70;2.35;;;;;;;11.42;65.84;101892.63;5004815;28;20033;-74
2021/04/23 06:25:13;;;;;;;15.20;2.50;;;;;;;11.54;65.10;101892.69;5006747;28;20038;-73
2021/04/23 06:27:40;;;;;;;17.38;2.55;;;;;;;11.57;63.60;101900.13;5010239;28;20116;-73
2021/04/23 06:30:10;;;;;;;17.30;2.60;;;;;;;11.58;64.56;101896.28;5001472;28;20030;-74
2021/04/23 06:32:38;;;;;;;9.23;2.17;;;;;;;11.73;64.26;101906.50;4999759;28;20026;-71
2021/04/23 06:35:04;;;;;;;13.15;2.10;;;;;;;11.95;63.67;101906.16;5011523;28;20117;-73
2021/04/23 06:37:30;;;;;;;16.35;2.22;;;;;;;12.07;62.75;101918.91;5009469;28;20117;-73
2021/04/23 06:39:55;;;;;;;13.07;2.30;;;;;;;12.08;62.33;101905.06;4998421;28;20084;-74
2021/04/23 06:42:21;;;;;;;16.85;2.03;;;;;;;12.10;61.78;101915.56;4992826;28;20465;-74
2021/04/23 06:44:46;;;;;;;18.92;3.03;;;;;;;12.16;62.67;101906.09;4996038;28;20053;-74
2021/04/23 06:47:12;;;;;;;17.83;2.72;;;;;;;12.29;62.18;101907.72;4995352;28;20048;-70
2021/04/23 06:49:37;;;;;;;13.73;2.08;;;;;;;12.38;61.13;101909.19;5000345;28;20046;-73
2021/04/23 06:52:03;;;;;;;18.38;2.30;;;;;;;12.51;62.40;101910.78;5007367;28;20034;-74
2021/04/23 06:54:28;;;;;;;12.55;2.30;;;;;;;12.55;60.44;101910.88;4997660;28;20026;-73
2021/04/23 06:56:54;;;;;;;13.10;2.40;;;;;;;12.68;59.97;101915.97;5001817;28;20045;-73
2021/04/23 06:59:20;;;;;;;15.13;2.28;;;;;;;12.84;59.42;101921.50;5003031;28;20112;-73
2021/04/23 07:01:45;;;;;;;10.25;2.42;;;;;;;12.93;60.41;101924.09;5010212;28;20034;-74
2021/04/23 07:04:11;;;;;;;14.77;2.65;;;;;;;12.84;60.87;101915.28;5007846;28;20029;-74
2021/04/23 07:06:39;;;;;;;15.10;2.10;;;;;;;12.96;59.16;101921.50;5000557;28;20052;-72
2021/04/23 07:09:06;;;;;;;11.43;2.15;;;;;;;13.16;59.98;101922.50;4987105;28;20050;-73
2021/04/23 07:11:32;;;;;;;17.58;2.33;;;;;;;13.37;60.02;101920.44;5000558;28;20033;-73
2021/04/23 07:13:58;;;;;;;11.73;2.42;;;;;;;13.61;nan;101928.47;4999107;28;20033;-74
2021/04/23 07:16:23;;;;;;;12.57;2.70;;;;;;;13.81;57.71;101926.72;4991657;28;20035;-72
2021/04/23 07:18:49;;;;;;;15.73;2.50;;;;;;;13.80;57.47;101927.88;4995129;28;20038;-73
2021/04/23 07:21:14;;;;;;;10.82;1.92;;;;;;;13.96;55.75;101940.31;4994536;28;20096;-73
2021/04/23 07:23:40;;;;;;;10.40;2.13;;;;;;;14.16;54.98;101949.34;4992057;28;20030;-73
2021/04/23 07:26:05;;;;;;;10.60;2.20;;;;;;;14.21;54.74;101947.19;4996360;28;20467;-73
2021/04/23 07:28:31;;;;;;;11.32;2.20;;;;;;;14.26;54.93;101957.78;4992626;28;20045;-73
2021/04/23 07:30:57;;;;;;;15.57;2.42;;;;;;;14.35;53.92;101954.94;4991759;28;20487;-73
2021/04/23 07:33:22;;;;;;;14.43;2.40;;;;;;;14.51;54.21;101947.59;4988475;28;20125;-72
2021/04/23 07:35:49;;;;;;;9.05;2.22;;;;;;;14.48;54.41;101957.22;5030191;22;20092;-72
2021/04/23 07:38:15;;;;;;;13.85;2.13;;;;;;;14.64;53.62;101959.13;5013942;28;20044;-72
2021/04/23 07:40:42;;;;;;;11.30;2.13;;;;;;;14.78;53.09;101963.00;5000697;28;20030;-72
2021/04/23 07:43:08;;;;;;;14.18;2.35;;;;;;;14.94;52.09;101952.91;4998534;28;20045;-72
2021/04/23 07:45:34;;;;;;;12.85;2.58;;;;;;;14.97;50.57;101962.28;4989772;28;20029;-72
2021/04/23 07:47:59;;;;;;;12.80;2.03;;;;;;;15.09;51.41;101956.75;4988366;28;20709;-72
2021/04/23 07:50:26;;;;;;;12.13;2.40;;;;;;;15.26;51.20;101967.22;4991163;28;20403;-73
2021/04/23 07:52:53;;;;;;;10.48;1.95;;;;;;;15.47;50.55;101969.66;4992450;28;20145;-73
2021/04/23 07:55:20;;;;;;;10.57;2.00;;;;;;;15.41;49.40;101960.19;4993974;28;20030;-73
2021/04/23 07:57:47;;;;;;;13.00;2.05;;;;;;;15.58;48.83;101968.72;4991892;28;20030;-73
2021/04/23 08:00:16;;;;;;;9.80;2.13;;;;;;;15.74;49.54;101974.09;4994217;28;20073;-73
2021/04/23 08:02:42;;;;;;;8.32;2.00;;;;;;;15.84;47.45;101965.38;4993032;28;20042;-73
2021/04/23 08:05:10;;;;;;;9.63;1.90;;;;;;;15.91;46.74;101971.75;4988877;28;20507;-73
2021/04/23 08:07:36;;;;;;;10.10;2.20;;;;;;;15.94;47.25;101973.78;4991240;28;20190;-73
2021/04/23 08:10:03;;;;;;;10.40;2.10;;;;;;;16.11;46.81;101967.88;4992489;28;20117;-73
2021/04/23 08:12:28;;;;;;;9.50;1.83;;;;;;;16.13;47.12;101970.25;4996984;28;20029;-73
2021/04/23 08:14:54;;;;;;;13.55;2.30;;;;;;;15.99;48.19;101968.03;4995671;28;20037;-73
2021/04/23 08:17:19;;;;;;;14.20;1.70;;;;;;;16.39;46.91;101969.56;4994820;28;20080;-73
2021/04/23 08:19:45;;;;;;;10.10;2.28;;;;;;;16.52;46.44;101970.97;4999978;28;20065;-73
2021/04/23 08:22:10;;;;;;;11.10;2.67;;;;;;;16.71;45.77;101977.16;4995726;28;20030;-73
2021/04/23 08:24:38;;;;;;;10.98;1.70;;;;;;;16.79;45.40;101984.28;4996633;28;20053;-73
2021/04/23 08:27:04;;;;;;;8.93;1.65;;;;;;;16.87;45.00;101985.19;4993848;28;20030;-73
2021/04/23 08:29:29;;;;;;;13.27;2.17;;;;;;;16.94;45.21;101988.00;4999727;28;20043;-73
2021/04/23 08:31:55;;;;;;;9.45;2.00;;;;;;;17.12;45.12;101972.75;5003695;28;20032;-73
2021/04/23 08:34:20;;;;;;;12.35;2.03;;;;;;;16.71;44.48;101981.78;4998352;28;20084;-73
2021/04/23 08:36:46;;;;;;;10.02;2.22;;;;;;;16.94;45.02;101983.34;4996369;28;20513;-74
2021/04/23 08:39:12;;;;;;;9.65;2.25;;;;;;;17.15;44.91;101982.88;4995212;28;20120;-73
2021/04/23 08:41:39;;;;;;;10.57;1.90;;;;;;;17.32;45.55;101979.66;4996556;28;20041;-73
2021/04/23 08:44:05;;;;;;;11.65;2.10;;;;;;;17.45;44.79;101991.91;4998408;28;20042;-73
2021/04/23 08:46:33;;;;;;;8.98;1.55;;;;;;;17.71;43.77;101994.59;4999725;28;20409;-73
2021/04/23 08:49:00;;;;;;;10.48;1.80;;;;;;;18.00;43.44;101998.50;4995833;28;20384;-73
2021/04/23 08:51:28;;;;;;;9.52;1.77;;;;;;;18.15;42.50;102002.94;4997713;28;20036;-73
2021/04/23 08:53:54;;;;;;;7.38;1.70;;;;;;;18.10;42.94;101999.78;5004290;28;20651;-73
2021/04/23 08:56:20;;;;;;;9.00;2.15;;;;;;;18.08;42.50;101994.66;4996264;28;20104;-74
2021/04/23 08:58:47;;;;;;;11.00;2.00;;;;;;;18.22;41.76;101991.31;4996885;28;20030;-74
2021/04/23 09:01:13;;;;;;;14.98;2.03;;;;;;;18.49;41.74;102000.97;4998783;28;20046;-73
2021/04/23 09:03:39;;;;;;;9.23;2.13;;;;;;;18.43;42.24;102002.47;5005849;28;20399;-73
2021/04/23 09:06:16;;;;;;;6.88;1.98;;;;;;;17.75;43.27;101992.72;4997625;28;20067;-73
2021/04/23 09:09:05;;;;;;;7.97;1.55;;;;;;;18.37;40.53;102004.72;5000495;28;20116;-73
2021/04/23 09:11:38;;;;;;;8.82;1.85;;;;;;;18.64;40.48;102008.16;5001376;28;20036;-73
2021/04/23 09:14:15;;;;;;;7.47;1.80;;;;;;;18.56;41.60;102009.25;5004533;28;20026;-73
2021/04/23 09:16:44;;;;;;;13.35;1.83;;;;;;;18.86;41.00;101999.78;5006056;28;20030;-73
2021/04/23 09:19:23;;;;;;;7.65;2.22;;;;;;;18.93;40.38;102007.22;4998045;28;20048;-73
2021/04/23 09:21:58;;;;;;;8.95;1.73;;;;;;;18.93;39.98;102005.28;4998712;28;20038;-73
2021/04/23 09:24:27;;;;;;;15.27;2.00;;;;;;;19.16;38.48;102001.56;4995875;28;20158;-74
2021/04/23 09:26:54;;;;;;;10.30;2.17;;;;;;;19.29;39.63;102008.28;4998092;28;20037;-73
2021/04/23 09:29:32;;;;;;;10.70;2.42;;;;;;;19.62;38.69;102006.19;4999378;28;20058;-73
2021/04/23 09:32:16;;;;;;;10.43;1.90;;;;;;;19.45;39.46;102004.09;5004297;28;20491;-73
2021/04/23 09:35:02;;;;;;;11.82;2.67;;;;;;;19.57;39.75;102005.72;4994996;28;20034;-72
2021/04/23 09:37:43;;;;;;;13.65;2.17;;;;;;;19.61;38.94;102010.06;4994100;28;20553;-73
2021/04/23 09:40:11;;;;;;;13.50;2.85;;;;;;;19.84;37.83;102009.78;4996346;28;20034;-73
2021/04/23 09:43:00;;;;;;;10.73;2.00;;;;;;;20.07;37.93;102006.75;4997676;28;20030;-73
2021/04/23 09:45:29;;;;;;;13.13;2.65;;;;;;;19.94;38.63;102006.31;4992800;28;20030;-73
2021/04/23 09:47:56;;;;;;;10.07;2.17;;;;;;;20.05;37.82;102004.41;4994184;28;20022;-73
2021/04/23 09:50:29;;;;;;;11.80;2.13;;;;;;;20.22;38.31;101997.44;4995295;28;20030;-73
2021/04/23 09:52:57;;;;;;;10.05;2.00;;;;;;;20.36;38.33;101994.75;4990160;28;20109;-73
2021/04/23 09:55:29;;;;;;;7.05;1.63;;;;;;;20.30;38.72;101996.28;5004822;28;20124;-74
2021/04/23 09:58:06;;;;;;;11.18;2.13;;;;;;;20.29;38.53;102008.41;4987852;28;20054;-73
2021/04/23 10:00:37;;;;;;;10.20;2.05;;;;;;;19.68;37.28;101999.19;4987943;28;20033;-74
2021/04/23 10:03:05;;;;;;;9.25;1.70;;;;;;;19.70;37.94;102005.03;4998799;28;20027;-73
2021/04/23 10:05:35;;;;;;;9.57;1.85;;;;;;;20.36;37.37;102005.69;4999329;28;21202;-73
2021/04/23 10:08:03;;;;;;;7.10;2.05;;;;;;;20.76;37.42;102010.81;4999891;28;20038;-73
2021/04/23 10:10:29;;;;;;;11.57;1.90;;;;;;;21.03;37.22;102011.25;5003699;28;20038;-73
2021/04/23 10:13:02;;;;;;;8.80;2.08;;;;;;;21.19;36.14;102017.09;5000329;28;20030;-73
2021/04/23 10:15:30;;;;;;;8.05;2.05;;;;;;;20.97;37.43;102007.28;5001030;28;20044;-73
2021/04/23 10:18:03;;;;;;;13.02;2.28;;;;;;;21.14;37.38;102007.31;4993529;28;20033;-73
2021/04/23 10:20:38;;;;;;;11.52;2.08;;;;;;;21.16;36.39;102006.91;4997996;28;20065;-73
2021/04/23 10:23:05;;;;;;;11.05;2.28;;;;;;;21.35;36.61;102012.75;5001239;28;20420;-73
2021/04/23 10:25:32;;;;;;;6.55;1.90;;;;;;;21.51;35.04;102009.59;5001407;28;20021;-73
2021/04/23 10:28:00;;;;;;;7.63;2.35;;;;;;;21.58;35.19;102019.78;5000160;28;20040;-73
2021/04/23 10:30:28;;;;;;;13.20;2.30;;;;;;;21.55;34.72;102010.38;4996419;28;20574;-74
2021/04/23 10:32:56;;;;;;;7.70;1.92;;;;;;;21.77;35.31;102006.38;4996227;28;20440;-73
2021/04/23 10:35:25;;;;;;;9.77;2.17;;;;;;;21.91;35.18;102016.56;5001661;28;20435;-73
2021/04/23 10:37:52;;;;;;;10.30;2.30;;;;;;;21.63;35.53;102011.13;5001602;28;20479;-73
2021/04/23 10:40:20;;;;;;;11.68;2.47;;;;;;;21.64;36.03;102009.97;5001209;28;20109;-73
2021/04/23 10:42:51;;;;;;;10.07;2.45;;;;;;;21.67;34.62;102000.94;5004023;28;20046;-74
2021/04/23 10:45:22;;;;;;;12.57;2.17;;;;;;;21.83;35.21;102012.28;5000836;28;20057;-74
2021/04/23 10:47:49;;;;;;;7.97;2.20;;;;;;;21.77;35.87;102003.66;4998224;28;20041;-73
2021/04/23 10:50:19;;;;;;;8.80;2.03;;;;;;;21.72;35.72;102006.03;5001344;28;20418;-73
2021/04/23 10:53:02;;;;;;;10.68;1.95;;;;;;;21.46;35.95;102010.81;5003246;28;20030;-74
2021/04/23 10:55:40;;;;;;;9.77;1.98;;;;;;;21.91;35.18;102005.59;4998456;28;20034;-73
2021/04/23 10:58:07;;;;;;;6.45;1.98;;;;;;;22.07;34.74;102001.19;5003533;28;20048;-73
2021/04/23 11:00:33;;;;;;;7.07;1.90;;;;;;;22.24;34.29;102007.78;4998858;28;20061;-73
2021/04/23 11:03:20;;;;;;;10.65;1.77;;;;;;;22.41;33.67;102007.63;5002314;28;20030;-74
2021/04/23 11:05:47;;;;;;;10.95;2.00;;;;;;;22.37;34.17;102001.41;5000405;28;20042;-74
2021/04/23 11:08:12;;;;;;;11.13;2.35;;;;;;;22.22;34.76;101996.41;5000320;28;20030;-74
2021/04/23 11:10:56;;;;;;;9.25;2.15;;;;;;;22.41;33.01;101985.66;5006254;28;20049;-73
2021/04/23 11:13:26;;;;;;;7.35;1.80;;;;;;;22.48;32.56;102006.03;5004387;28;20041;-74
2021/04/23 11:16:24;;;;;;;8.65;2.13;;;;;;;22.75;32.73;102013.31;5002489;28;20044;-74
2021/04/23 11:18:54;;;;;;;13.15;2.40;;;;;;;22.88;32.72;102019.88;5001579;28;20049;-73
2021/04/23 11:21:36;;;;;;;9.65;2.35;;;;;;;22.07;34.06;102005.88;5006059;28;20045;-74
2021/04/23 11:24:15;;;;;;;4.95;1.88;;;;;;;22.27;33.84;102001.47;5005999;28;20510;-73
2021/04/23 11:27:03;;;;;;;7.47;2.22;;;;;;;22.55;33.34;102000.50;5005824;28;20032;-73
2021/04/23 11:29:51;;;;;;;8.95;1.90;;;;;;;22.93;32.43;102007.69;5004604;28;20029;-73